createdAt,value
2023-08-11T00:02:33.549Z,101281.69
2023-08-11T00:05:39.464Z,101277.75
2023-08-11T00:08:42.201Z,101282.94
2023-08-11T00:11:44.865Z,101286.06
2023-08-11T00:14:47.686Z,101279.38
2023-08-11T00:17:58.696Z,101278.56
2023-08-11T00:21:01.484Z,101273.06
2023-08-11T00:24:04.432Z,101270.00
2023-08-11T00:27:07.886Z,101269.63
2023-08-11T00:30:12.283Z,101272.94
2023-08-11T00:33:15.324Z,101271.72
2023-08-11T00:36:18.408Z,101281.16
2023-08-11T00:39:21.088Z,101271.75
2023-08-11T00:42:23.737Z,101275.03
2023-08-11T00:45:26.592Z,101286.94
2023-08-11T00:48:43.922Z,101284.09
2023-08-11T00:51:49.954Z,101287.41
2023-08-11T00:54:55.320Z,101282.06
2023-08-11T00:57:58.186Z,101281.03
2023-08-11T01:01:01.195Z,101286.59
2023-08-11T01:04:08.979Z,101276.59
2023-08-11T01:07:35.179Z,101274.13
2023-08-11T01:10:49.555Z,101280.06
2023-08-11T01:14:04.909Z,101286.84
2023-08-11T01:17:11.196Z,101297.31
2023-08-11T01:20:17.424Z,101286.88
2023-08-11T01:23:22.245Z,101282.97
2023-08-11T01:26:25.317Z,101277.03
2023-08-11T01:29:28.199Z,101283.59
2023-08-11T01:32:31.100Z,101294.66
2023-08-11T01:35:40.675Z,101296.31
2023-08-11T01:38:45.010Z,101300.81
2023-08-11T01:41:48.080Z,101298.38
2023-08-11T01:44:51.006Z,101300.81
2023-08-11T01:47:55.013Z,101292.81
2023-08-11T01:50:57.880Z,101291.19
2023-08-11T01:54:00.684Z,101288.72
2023-08-11T01:57:04.044Z,101284.00
2023-08-11T02:00:14.539Z,101284.19
2023-08-11T02:03:17.258Z,101286.84
2023-08-11T02:06:19.976Z,101280.50
2023-08-11T02:09:23.679Z,101282.50
2023-08-11T02:12:26.516Z,101284.75
2023-08-11T02:15:29.467Z,101278.19
2023-08-11T02:18:32.539Z,101280.66
2023-08-11T02:21:38.749Z,101280.44
2023-08-11T02:24:41.373Z,101286.56
2023-08-11T02:27:45.067Z,101286.56
2023-08-11T02:30:48.621Z,101277.91
2023-08-11T02:33:51.303Z,101281.34
2023-08-11T02:36:54.036Z,101279.47
2023-08-11T02:39:56.944Z,101278.06
2023-08-11T02:42:59.747Z,101275.59
2023-08-11T02:46:02.565Z,101276.59
2023-08-11T02:49:05.387Z,101272.69
2023-08-11T02:52:08.571Z,101282.72
2023-08-11T02:55:12.733Z,101287.44
2023-08-11T02:58:15.562Z,101279.00
2023-08-11T03:01:19.060Z,101278.22
2023-08-11T03:04:22.010Z,101282.31
2023-08-11T03:07:25.521Z,101277.59
2023-08-11T03:10:29.899Z,101286.19
2023-08-11T03:13:34.180Z,101291.69
2023-08-11T03:16:37.318Z,101287.66
2023-08-11T03:19:40.172Z,101296.91
2023-08-11T03:22:45.257Z,101302.16
2023-08-11T03:25:50.494Z,101302.56
2023-08-11T03:28:55.880Z,101303.53
2023-08-11T03:31:59.513Z,101310.25
2023-08-11T03:35:03.981Z,101311.63
2023-08-11T03:38:07.349Z,101305.25
2023-08-11T03:41:10.924Z,101306.47
2023-08-11T03:44:14.097Z,101302.19
2023-08-11T03:47:16.915Z,101306.66
2023-08-11T03:50:22.749Z,101303.19
2023-08-11T03:53:25.408Z,101305.25
2023-08-11T03:56:28.066Z,101308.97
2023-08-11T03:59:30.915Z,101310.66
2023-08-11T04:02:36.442Z,101305.97
2023-08-11T04:05:40.530Z,101320.06
2023-08-11T04:08:43.655Z,101321.06
2023-08-11T04:11:46.423Z,101314.13
2023-08-11T04:14:49.288Z,101322.97
2023-08-11T04:17:52.828Z,101328.91
2023-08-11T04:20:55.640Z,101327.56
2023-08-11T04:23:59.179Z,101321.97
2023-08-11T04:27:03.118Z,101327.16
2023-08-11T04:30:07.197Z,101329.06
2023-08-11T04:33:10.597Z,101330.28
2023-08-11T04:36:14.558Z,101330.69
2023-08-11T04:39:18.222Z,101329.19
2023-08-11T04:42:21.490Z,101331.28
2023-08-11T04:45:25.192Z,101335.56
2023-08-11T04:48:28.101Z,101339.28
2023-08-11T04:51:30.992Z,101348.72
2023-08-11T04:54:33.892Z,101351.59
2023-08-11T04:57:37.239Z,101349.03
2023-08-11T05:00:41.834Z,101350.19
2023-08-11T05:03:44.690Z,101355.66
2023-08-11T05:06:47.488Z,101351.81
2023-08-11T05:09:50.644Z,101348.19
2023-08-11T05:12:53.477Z,101352.06
2023-08-11T05:15:56.298Z,101360.09
2023-08-11T05:18:59.020Z,101356.22
2023-08-11T05:22:01.832Z,101363.88
2023-08-11T05:25:05.743Z,101363.38
2023-08-11T05:28:11.122Z,101360.25
2023-08-11T05:31:16.649Z,101365.81
2023-08-11T05:34:19.340Z,101365.44
2023-08-11T05:37:24.229Z,101364.13
2023-08-11T05:44:02.518Z,101369.88
2023-08-11T05:47:07.306Z,101369.13
2023-08-11T05:53:28.486Z,101367.28
2023-08-11T05:56:31.311Z,101366.25
2023-08-11T05:59:34.165Z,101374.13
2023-08-11T06:02:37.010Z,101371.47
2023-08-11T06:05:39.786Z,101371.97
2023-08-11T06:08:42.569Z,101372.34
2023-08-11T06:11:48.122Z,101371.28
2023-08-11T06:14:56.758Z,101375.03
2023-08-11T06:18:02.781Z,101375.78
2023-08-11T06:21:37.228Z,101372.72
2023-08-11T06:24:45.848Z,101375.38
2023-08-11T06:28:46.058Z,101381.91
2023-08-11T06:32:35.482Z,101379.25
2023-08-11T06:35:38.632Z,101379.00
2023-08-11T06:38:41.535Z,101382.16
2023-08-11T06:41:44.604Z,101376.84
2023-08-11T06:44:48.497Z,101382.00
2023-08-11T06:47:51.215Z,101383.59
2023-08-11T06:50:54.030Z,101382.63
2023-08-11T06:54:01.043Z,101390.31
2023-08-11T06:57:33.996Z,101383.69
2023-08-11T07:00:38.128Z,101386.94
2023-08-11T07:03:43.891Z,101385.59
2023-08-11T07:07:18.362Z,101389.25
2023-08-11T07:10:12.898Z,101385.94
2023-08-11T07:13:15.750Z,101390.41
2023-08-11T07:16:22.174Z,101387.75
2023-08-11T07:19:26.296Z,101391.81
2023-08-11T07:22:40.666Z,101389.81
2023-08-11T07:25:44.436Z,101387.72
2023-08-11T07:28:47.811Z,101388.69
2023-08-11T07:31:50.507Z,101387.44
2023-08-11T07:34:53.223Z,101391.94
2023-08-11T07:37:56.337Z,101386.69
2023-08-11T07:40:59.037Z,101393.66
2023-08-11T07:44:01.701Z,101389.94
2023-08-11T07:47:04.667Z,101382.59
2023-08-11T07:50:08.019Z,101387.78
2023-08-11T07:53:10.999Z,101378.16
2023-08-11T07:56:14.360Z,101384.66
2023-08-11T07:59:17.489Z,101383.44
2023-08-11T08:02:20.370Z,101383.03
2023-08-11T08:05:23.401Z,101382.50
2023-08-11T08:08:26.097Z,101383.84
2023-08-11T08:11:28.784Z,101386.22
2023-08-11T08:14:31.655Z,101385.94
2023-08-11T08:17:35.080Z,101387.31
2023-08-11T08:20:37.819Z,101389.72
2023-08-11T08:23:40.483Z,101388.88
2023-08-11T08:26:44.723Z,101385.06
2023-08-11T08:29:53.260Z,101387.88
2023-08-11T08:32:56.249Z,101380.25
2023-08-11T08:35:59.026Z,101377.28
2023-08-11T08:39:01.762Z,101376.41
2023-08-11T08:42:06.955Z,101380.03
2023-08-11T08:45:10.182Z,101378.91
2023-08-11T08:48:26.841Z,101369.31
2023-08-11T08:51:31.465Z,101376.47
2023-08-11T08:54:35.193Z,101364.19
2023-08-11T08:57:38.577Z,101373.34
2023-08-11T09:00:42.148Z,101374.84
2023-08-11T09:03:46.022Z,101383.81
2023-08-11T09:06:49.426Z,101362.19
2023-08-11T09:09:52.526Z,101366.25
2023-08-11T09:12:55.331Z,101367.56
2023-08-11T09:16:00.835Z,101365.78
2023-08-11T09:19:06.201Z,101369.34
2023-08-11T09:22:14.519Z,101358.19
2023-08-11T09:25:17.620Z,101365.16
2023-08-11T09:28:20.325Z,101372.69
2023-08-11T09:31:27.331Z,101363.75
2023-08-11T09:34:30.894Z,101356.94
2023-08-11T09:37:33.610Z,101355.50
2023-08-11T09:40:37.122Z,101351.63
2023-08-11T09:43:40.320Z,101361.81
2023-08-11T09:46:44.012Z,101349.38
2023-08-11T09:49:46.977Z,101348.78
2023-08-11T09:52:50.080Z,101352.25
2023-08-11T09:55:56.339Z,101355.28
2023-08-11T09:59:03.327Z,101354.03
2023-08-11T10:02:13.231Z,101355.28
2023-08-11T10:05:18.444Z,101343.06
2023-08-11T10:08:23.543Z,101354.69
2023-08-11T10:11:29.585Z,101357.00
2023-08-11T10:14:35.744Z,101346.41
2023-08-11T10:17:39.818Z,101345.28
2023-08-11T10:20:43.028Z,101337.34
2023-08-11T10:23:46.500Z,101340.75
2023-08-11T10:26:50.529Z,101339.78
2023-08-11T10:29:55.326Z,101338.34
2023-08-11T10:33:10.374Z,101337.84
2023-08-11T10:36:17.583Z,101338.88
2023-08-11T10:39:21.711Z,101337.03
2023-08-11T10:42:24.746Z,101334.63
2023-08-11T10:45:29.124Z,101329.28
2023-08-11T10:48:33.998Z,101323.63
2023-08-11T10:51:38.947Z,101323.81
2023-08-11T10:54:51.071Z,101329.56
2023-08-11T10:58:13.099Z,101316.72
2023-08-11T11:01:16.056Z,101321.94
2023-08-11T11:04:21.132Z,101315.81
2023-08-11T11:07:24.837Z,101318.81
2023-08-11T11:10:39.671Z,101312.91
2023-08-11T11:13:52.050Z,101308.25
2023-08-11T11:16:56.418Z,101309.97
2023-08-11T11:20:01.105Z,101304.47
2023-08-11T11:23:06.786Z,101303.31
2023-08-11T11:26:09.704Z,101299.78
2023-08-11T11:29:13.166Z,101304.81
2023-08-11T11:32:18.079Z,101302.50
2023-08-11T11:35:20.844Z,101299.81
2023-08-11T11:38:23.580Z,101295.91
2023-08-11T11:41:26.459Z,101299.69
2023-08-11T11:44:30.590Z,101291.13
2023-08-11T11:47:34.629Z,101287.59
2023-08-11T11:50:37.633Z,101288.47
2023-08-11T11:53:41.270Z,101290.13
2023-08-11T11:56:54.214Z,101288.22
2023-08-11T12:00:11.696Z,101289.75
2023-08-11T12:03:16.396Z,101281.19
2023-08-11T12:06:20.433Z,101279.47
2023-08-11T12:09:23.257Z,101288.91
2023-08-11T12:12:28.119Z,101289.91
2023-08-11T12:15:32.546Z,101292.47
2023-08-11T12:18:36.264Z,101280.97
2023-08-11T12:21:39.075Z,101283.59
2023-08-11T12:24:41.871Z,101283.03
2023-08-11T12:27:45.752Z,101274.31
2023-08-11T12:30:49.378Z,101277.19
2023-08-11T12:33:52.201Z,101276.38
2023-08-11T12:36:55.118Z,101273.28
2023-08-11T12:39:57.750Z,101269.91
2023-08-11T12:43:00.465Z,101272.31
2023-08-11T12:46:03.316Z,101273.09
2023-08-11T12:49:06.384Z,101272.28
2023-08-11T12:52:09.321Z,101269.63
2023-08-11T12:55:13.226Z,101268.88
2023-08-11T12:58:27.575Z,101271.34
2023-08-11T13:01:30.460Z,101269.91
2023-08-11T13:04:33.294Z,101265.81
2023-08-11T13:07:38.055Z,101269.25
2023-08-11T13:10:41.076Z,101275.41
2023-08-11T13:13:43.784Z,101257.72
2023-08-11T13:16:47.073Z,101246.28
2023-08-11T13:19:49.867Z,101257.84
2023-08-11T13:22:52.650Z,101254.78
2023-08-11T13:25:55.310Z,101262.56
2023-08-11T13:28:59.844Z,101268.19
2023-08-11T13:32:02.620Z,101261.13
2023-08-11T13:35:06.459Z,101254.06
2023-08-11T13:38:09.314Z,101248.69
2023-08-11T13:41:12.213Z,101245.44
2023-08-11T13:44:15.049Z,101249.69
2023-08-11T13:47:18.343Z,101248.38
2023-08-11T13:50:21.028Z,101242.13
2023-08-11T13:53:23.860Z,101246.97
2023-08-11T13:56:26.572Z,101254.75
2023-08-11T13:59:29.274Z,101252.03
2023-08-11T14:02:32.174Z,101250.38
2023-08-11T14:05:35.855Z,101246.78
2023-08-11T14:08:38.713Z,101250.50
2023-08-11T14:11:41.411Z,101254.56
2023-08-11T14:14:44.221Z,101254.53
2023-08-11T14:17:47.078Z,101244.50
2023-08-11T14:20:49.822Z,101250.53
2023-08-11T14:23:52.566Z,101250.28
2023-08-11T14:26:55.466Z,101251.97
2023-08-11T14:29:58.297Z,101254.47
2023-08-11T14:33:01.365Z,101249.97
2023-08-11T14:39:14.885Z,101247.75
2023-08-11T14:42:19.122Z,101248.72
2023-08-11T14:45:21.957Z,101251.00
2023-08-11T14:48:27.001Z,101245.06
2023-08-11T14:51:30.845Z,101251.81
2023-08-11T14:54:33.810Z,101249.59
2023-08-11T14:57:36.522Z,101248.06
2023-08-11T15:00:39.414Z,101253.22
2023-08-11T15:03:42.869Z,101247.22
2023-08-11T15:06:45.763Z,101255.66
2023-08-11T15:09:48.446Z,101248.28
2023-08-11T15:12:51.454Z,101243.78
2023-08-11T15:15:54.277Z,101250.38
2023-08-11T15:18:57.034Z,101245.59
2023-08-11T15:21:59.869Z,101245.97
2023-08-11T15:25:05.619Z,101247.53
2023-08-11T15:28:08.358Z,101249.00
2023-08-11T15:31:11.319Z,101248.00
2023-08-11T15:34:14.074Z,101249.78
2023-08-11T15:37:16.757Z,101243.91
2023-08-11T15:40:19.461Z,101257.06
2023-08-11T15:43:22.150Z,101248.47
2023-08-11T15:46:24.891Z,101255.53
2023-08-11T15:49:27.994Z,101256.72
2023-08-11T15:52:30.756Z,101244.44
2023-08-11T15:55:36.613Z,101255.69
2023-08-11T15:58:41.333Z,101255.91
2023-08-11T16:01:52.737Z,101258.44
2023-08-11T16:05:02.483Z,101257.53
2023-08-11T16:08:05.835Z,101258.16
2023-08-11T16:11:08.719Z,101249.56
2023-08-11T16:14:13.182Z,101263.19
2023-08-11T16:17:16.022Z,101261.16
2023-08-11T16:20:18.716Z,101270.13
2023-08-11T16:23:21.358Z,101266.56
2023-08-11T16:26:24.103Z,101270.88
2023-08-11T16:29:26.860Z,101265.72
2023-08-11T16:32:29.675Z,101261.78
2023-08-11T16:35:32.444Z,101273.25
2023-08-11T16:38:35.163Z,101279.78
2023-08-11T16:41:37.919Z,101280.19
2023-08-11T16:44:40.661Z,101273.09
2023-08-11T16:47:43.444Z,101274.56
2023-08-11T16:50:46.938Z,101275.72
2023-08-11T16:53:49.796Z,101277.78
2023-08-11T16:56:52.491Z,101272.56
2023-08-11T16:59:55.369Z,101277.84
2023-08-11T17:02:58.196Z,101283.91
2023-08-11T17:06:00.981Z,101289.75
2023-08-11T17:09:05.382Z,101293.09
2023-08-11T17:12:08.900Z,101294.38
2023-08-11T17:15:12.254Z,101288.97
2023-08-11T17:18:15.058Z,101292.19
2023-08-11T17:21:20.870Z,101293.97
2023-08-11T17:24:23.568Z,101296.81
2023-08-11T17:27:26.270Z,101289.31
2023-08-11T17:30:30.967Z,101294.88
2023-08-11T17:33:33.765Z,101295.28
2023-08-11T17:36:36.729Z,101302.94
2023-08-11T17:39:39.542Z,101306.31
2023-08-11T17:42:42.485Z,101313.41
2023-08-11T17:48:47.958Z,101310.78
2023-08-11T17:51:50.618Z,101310.31
2023-08-11T17:54:53.469Z,101315.50
2023-08-11T17:57:56.308Z,101308.75
2023-08-11T18:00:59.402Z,101313.59
2023-08-11T18:04:06.015Z,101319.28
2023-08-11T18:07:10.072Z,101312.22
2023-08-11T18:10:12.851Z,101318.72
2023-08-11T18:13:15.792Z,101321.03
2023-08-11T18:16:18.521Z,101320.22
2023-08-11T18:19:21.192Z,101319.34
2023-08-11T18:22:23.953Z,101330.06
2023-08-11T18:25:26.762Z,101332.16
2023-08-11T18:28:29.449Z,101340.75
2023-08-11T18:31:32.151Z,101336.88
2023-08-11T18:34:35.005Z,101345.69
2023-08-11T18:37:37.935Z,101342.63
2023-08-11T18:40:40.685Z,101340.88
2023-08-11T18:43:43.520Z,101348.81
2023-08-11T18:46:46.246Z,101349.56
2023-08-11T18:49:49.120Z,101349.38
2023-08-11T18:52:51.824Z,101362.19
2023-08-11T18:55:54.604Z,101362.09
2023-08-11T18:58:57.331Z,101363.78
2023-08-11T19:02:00.097Z,101364.47
2023-08-11T19:05:02.926Z,101362.81
2023-08-11T19:08:07.725Z,101369.69
2023-08-11T19:11:10.489Z,101371.34
2023-08-11T19:14:13.795Z,101369.06
2023-08-11T19:17:16.584Z,101375.13
2023-08-11T19:20:19.613Z,101363.13
2023-08-11T19:23:22.467Z,101368.94
2023-08-11T19:26:25.399Z,101370.16
2023-08-11T19:29:28.150Z,101369.22
2023-08-11T19:32:30.886Z,101372.81
2023-08-11T19:35:33.738Z,101371.22
2023-08-11T19:38:42.380Z,101373.59
2023-08-11T19:41:45.078Z,101368.13
2023-08-11T19:44:47.848Z,101374.81
2023-08-11T19:47:50.660Z,101375.81
2023-08-11T19:50:53.693Z,101376.94
2023-08-11T19:53:56.383Z,101377.53
2023-08-11T19:56:59.126Z,101378.09
2023-08-11T20:00:02.047Z,101377.53
2023-08-11T20:03:16.871Z,101381.66
2023-08-11T20:06:19.708Z,101379.63
2023-08-11T20:09:25.252Z,101368.22
2023-08-11T20:12:28.033Z,101368.34
2023-08-11T20:15:31.289Z,101371.66
2023-08-11T20:18:34.091Z,101374.50
2023-08-11T20:21:37.103Z,101386.34
2023-08-11T20:24:39.808Z,101373.56
2023-08-11T20:27:42.638Z,101368.41
2023-08-11T20:30:45.538Z,101365.41
2023-08-11T20:33:48.667Z,101366.94
2023-08-11T20:36:51.739Z,101367.88
2023-08-11T20:39:54.411Z,101368.25
2023-08-11T20:42:59.842Z,101367.09
2023-08-11T20:46:02.647Z,101363.59
2023-08-11T20:49:05.419Z,101364.66
2023-08-11T20:52:08.082Z,101369.31
2023-08-11T20:55:10.950Z,101367.72
2023-08-11T20:58:13.672Z,101374.22
2023-08-11T21:01:16.458Z,101370.03
2023-08-11T21:04:19.315Z,101365.38
2023-08-11T21:07:22.029Z,101368.97
2023-08-11T21:10:24.740Z,101371.31
2023-08-11T21:13:27.439Z,101368.63
2023-08-11T21:16:30.400Z,101379.22
2023-08-11T21:19:33.267Z,101376.19
2023-08-11T21:22:36.013Z,101371.75
2023-08-11T21:25:38.695Z,101367.69
2023-08-11T21:28:41.472Z,101373.72
2023-08-11T21:31:44.301Z,101372.91
2023-08-11T21:34:47.104Z,101378.75
2023-08-11T21:37:50.259Z,101373.72
2023-08-11T21:40:52.932Z,101375.66
2023-08-11T21:43:55.680Z,101374.19
2023-08-11T21:46:58.601Z,101376.59
2023-08-11T21:50:01.800Z,101377.75
2023-08-11T21:53:17.115Z,101378.41
2023-08-11T21:56:24.258Z,101379.44
2023-08-11T21:59:28.543Z,101385.13
2023-08-11T22:02:31.354Z,101382.06
2023-08-11T22:05:34.225Z,101381.06
2023-08-11T22:08:36.946Z,101387.38
2023-08-11T22:11:45.400Z,101388.34
2023-08-11T22:14:48.322Z,101384.72
2023-08-11T22:17:51.110Z,101383.16
2023-08-11T22:20:53.898Z,101390.81
2023-08-11T22:23:57.167Z,101383.09
2023-08-11T22:26:59.849Z,101381.28
2023-08-11T22:30:03.931Z,101382.41
2023-08-11T22:33:07.127Z,101385.16
2023-08-11T22:36:09.920Z,101382.69
2023-08-11T22:39:12.714Z,101377.53
2023-08-11T22:42:15.491Z,101381.28
2023-08-11T22:45:18.331Z,101375.31
2023-08-11T22:48:21.269Z,101370.19
2023-08-11T22:51:24.118Z,101373.53
2023-08-11T22:54:26.876Z,101370.09
2023-08-11T22:57:29.637Z,101365.16
2023-08-11T23:00:32.521Z,101368.06
2023-08-11T23:03:35.355Z,101373.25
2023-08-11T23:06:38.005Z,101372.28
2023-08-11T23:09:40.812Z,101375.97
2023-08-11T23:12:43.685Z,101374.53
2023-08-11T23:15:46.401Z,101378.66
2023-08-11T23:18:49.634Z,101373.38
2023-08-11T23:21:52.407Z,101375.09
2023-08-11T23:24:55.406Z,101368.56
2023-08-11T23:27:58.225Z,101362.88
2023-08-11T23:31:00.955Z,101373.59
2023-08-11T23:34:03.876Z,101370.72
2023-08-11T23:37:06.680Z,101367.41
2023-08-11T23:40:10.246Z,101363.31
2023-08-11T23:43:13.855Z,101365.19
2023-08-11T23:46:16.594Z,101360.78
2023-08-11T23:49:19.416Z,101362.22
2023-08-11T23:52:24.421Z,101360.00
2023-08-11T23:55:28.024Z,101369.06
2023-08-11T23:58:31.046Z,101374.44
